Time;durP1;ratioP1;P1;durP2;ratioP2;P2;SDS_P1;SDS_P2;PMS_P1;PMS_P2;Temp;Humidity;BMP_temperature;BMP_pressure;BME280_temperature;BME280_humidity;BME280_pressure;Samples;Min_cycle;Max_cycle;Signal;HPM_P1;HPM_P2
2023/01/28 00:01:43;;;;;;;29.95;21.00;;;3.90;99.90;;;;;;4897123;29;20047;-73
2023/01/28 00:04:10;;;;;;;31.98;21.30;;;3.90;99.90;;;;;;4908116;29;20048;-76
2023/01/28 00:06:37;;;;;;;32.15;21.10;;;4.00;99.90;;;;;;4917818;29;20146;-73
2023/01/28 00:09:05;;;;;;;32.60;20.63;;;3.90;99.90;;;;;;4917212;29;20750;-72
2023/01/28 00:11:32;;;;;;;32.20;20.75;;;4.00;99.90;;;;;;4917151;29;20059;-72
2023/01/28 00:14:03;;;;;;;33.20;21.55;;;4.00;99.90;;;;;;4904803;23;20404;-74
2023/01/28 00:16:30;;;;;;;30.67;20.63;;;4.00;99.90;;;;;;4882568;29;20107;-74
2023/01/28 00:18:58;;;;;;;28.40;20.17;;;4.00;99.90;;;;;;4882795;29;20055;-73
2023/01/28 00:21:25;;;;;;;29.98;18.65;;;3.90;99.90;;;;;;4882877;29;20048;-74
2023/01/28 00:23:54;;;;;;;26.63;19.90;;;3.90;99.90;;;;;;4913458;29;20464;-74
2023/01/28 00:26:24;;;;;;;27.25;18.92;;;3.90;99.90;;;;;;4913544;29;20174;-74
2023/01/28 00:28:53;;;;;;;31.83;20.38;;;4.00;99.90;;;;;;4916587;29;20136;-74
2023/01/28 00:31:22;;;;;;;28.35;19.10;;;3.90;99.90;;;;;;4918072;29;20119;-74
2023/01/28 00:33:51;;;;;;;34.63;22.88;;;3.70;99.90;;;;;;4902301;29;20048;-72
2023/01/28 00:36:32;;;;;;;34.30;22.50;;;3.70;99.90;;;;;;4901700;29;20048;-73
2023/01/28 00:38:59;;;;;;;33.65;21.10;;;3.60;99.90;;;;;;4894678;29;20160;-75
2023/01/28 00:41:28;;;;;;;29.02;19.67;;;3.80;99.90;;;;;;4898730;29;20135;-74
2023/01/28 00:43:59;;;;;;;32.63;21.00;;;3.70;99.90;;;;;;4884699;29;20456;-73
2023/01/28 00:46:35;;;;;;;30.77;19.90;;;3.70;99.90;;;;;;4876556;29;20036;-73
2023/01/28 00:49:07;;;;;;;27.25;19.00;;;3.70;99.90;;;;;;4896065;29;20040;-73
2023/01/28 00:51:35;;;;;;;32.10;20.48;;;3.70;99.90;;;;;;4886359;29;20421;-73
2023/01/28 00:54:03;;;;;;;29.33;19.52;;;3.70;99.90;;;;;;4913784;29;20052;-73
2023/01/28 00:56:32;;;;;;;27.88;19.35;;;3.80;99.90;;;;;;4896769;29;20043;-73
2023/01/28 00:58:59;;;;;;;28.30;18.83;;;3.80;99.90;;;;;;4915413;29;20048;-72
2023/01/28 01:01:27;;;;;;;30.58;20.65;;;3.90;99.90;;;;;;4915526;29;20044;-73
2023/01/28 01:04:02;;;;;;;31.98;22.08;;;3.80;99.90;;;;;;4893401;29;20044;-72
2023/01/28 01:06:34;;;;;;;29.40;19.48;;;3.80;99.90;;;;;;4899215;29;20036;-71
2023/01/28 01:09:10;;;;;;;32.15;20.30;;;3.80;99.90;;;;;;4895180;29;20059;-73
2023/01/28 01:11:38;;;;;;;31.30;19.73;;;3.70;99.90;;;;;;4867071;29;20052;-75
2023/01/28 01:14:11;;;;;;;31.15;21.25;;;3.80;99.90;;;;;;4865999;29;20056;-72
2023/01/28 01:16:40;;;;;;;30.95;20.67;;;3.80;99.90;;;;;;4867295;29;20060;-75
2023/01/28 01:19:07;;;;;;;25.20;18.17;;;3.70;99.90;;;;;;4883113;29;20044;-73
2023/01/28 01:21:35;;;;;;;30.13;19.48;;;3.80;99.90;;;;;;4882316;29;20051;-74
2023/01/28 01:24:15;;;;;;;27.30;17.52;;;3.80;99.90;;;;;;4882077;29;20056;-74
2023/01/28 01:26:45;;;;;;;29.48;18.83;;;3.80;99.90;;;;;;4863715;29;20044;-73
2023/01/28 01:29:17;;;;;;;22.20;16.85;;;3.90;99.90;;;;;;4882071;29;20446;-72
2023/01/28 01:31:44;;;;;;;21.13;14.70;;;3.90;99.90;;;;;;4898501;29;20053;-73
2023/01/28 01:34:17;;;;;;;24.33;15.77;;;3.90;99.90;;;;;;4861274;29;20049;-73
2023/01/28 01:36:53;;;;;;;19.42;13.02;;;4.00;99.90;;;;;;4867754;29;20048;-75
2023/01/28 01:39:25;;;;;;;20.17;14.23;;;3.80;99.90;;;;;;4877572;29;20492;-73
2023/01/28 01:41:52;;;;;;;23.27;15.32;;;3.90;99.90;;;;;;4896807;29;20078;-74
2023/01/28 01:44:59;;;;;;;26.52;17.52;;;4.00;99.90;;;;;;4894595;29;20048;-73
2023/01/28 01:47:38;;;;;;;24.23;16.08;;;4.00;99.90;;;;;;4882063;29;20063;-72
2023/01/28 01:50:16;;;;;;;23.42;16.45;;;4.00;99.90;;;;;;4874007;29;20140;-72
2023/01/28 01:52:48;;;;;;;23.08;16.50;;;4.00;99.90;;;;;;4894391;29;20075;-72
2023/01/28 01:55:25;;;;;;;25.83;16.33;;;4.00;99.90;;;;;;4861338;29;20064;-73
2023/01/28 01:58:01;;;;;;;23.80;16.27;;;4.00;99.90;;;;;;4882876;29;20057;-74
2023/01/28 02:00:31;;;;;;;32.15;16.95;;;3.90;99.90;;;;;;4863120;29;20059;-76
2023/01/28 02:03:08;;;;;;;25.20;16.83;;;3.90;99.90;;;;;;4893379;29;20060;-71
2023/01/28 02:05:39;;;;;;;25.90;17.23;;;3.90;99.90;;;;;;4878654;29;20515;-74
2023/01/28 02:08:35;;;;;;;20.08;16.02;;;3.80;99.90;;;;;;4879027;29;20609;-72
2023/01/28 02:11:16;;;;;;;24.30;15.75;;;3.90;99.90;;;;;;4877319;29;20413;-71
2023/01/28 02:14:03;;;;;;;29.15;17.67;;;3.70;99.90;;;;;;4877986;29;20136;-74
2023/01/28 02:16:55;;;;;;;29.00;18.15;;;3.60;99.90;;;;;;4867299;29;20056;-74
2023/01/28 02:19:30;;;;;;;28.77;19.48;;;3.60;99.90;;;;;;4875956;29;20060;-73
2023/01/28 02:21:59;;;;;;;31.52;18.92;;;3.70;99.90;;;;;;4877833;29;20127;-72
2023/01/28 02:24:45;;;;;;;32.35;21.42;;;3.70;99.90;;;;;;4873463;29;20462;-73
2023/01/28 02:27:24;;;;;;;32.25;19.65;;;3.70;99.90;;;;;;4908656;29;20076;-73
2023/01/28 02:30:09;;;;;;;28.85;19.92;;;3.70;99.90;;;;;;4880954;29;20056;-71
2023/01/28 02:32:52;;;;;;;35.30;19.55;;;3.70;99.90;;;;;;4875412;29;20464;-71
2023/01/28 02:35:38;;;;;;;30.63;19.65;;;3.70;99.90;;;;;;4881367;29;20049;-72
2023/01/28 02:38:21;;;;;;;31.80;19.60;;;3.80;99.90;;;;;;4877402;29;20113;-71
2023/01/28 02:41:02;;;;;;;26.85;18.42;;;3.80;99.90;;;;;;4892969;29;20059;-74
2023/01/28 02:43:37;;;;;;;32.67;20.67;;;3.80;99.90;;;;;;4881301;29;20093;-73
2023/01/28 02:49:20;;;;;;;28.48;20.33;;;3.80;99.90;;;;;;4887677;29;20051;-75
2023/01/28 02:52:00;;;;;;;30.00;20.00;;;3.80;99.90;;;;;;4878108;29;20049;-72
2023/01/28 02:54:36;;;;;;;33.23;20.30;;;3.90;99.90;;;;;;4906936;29;20497;-71
2023/01/28 02:57:33;;;;;;;29.60;20.02;;;3.80;99.90;;;;;;4877244;29;20060;-71
2023/01/28 03:00:23;;;;;;;29.60;18.80;;;3.70;99.90;;;;;;4872948;29;20422;-71
2023/01/28 03:02:58;;;;;;;28.58;19.40;;;3.70;99.90;;;;;;4859028;29;20053;-70
2023/01/28 03:05:34;;;;;;;27.38;20.08;;;3.70;99.90;;;;;;4872817;29;20063;-71
2023/01/28 03:09:21;;;;;;;28.63;18.40;;;3.70;99.90;;;;;;4876166;29;20052;-72
2023/01/28 03:36:49;;;;;;;29.30;18.58;;;3.60;99.90;;;;;;4953294;28;20043;-74
2023/01/28 03:39:21;;;;;;;32.80;19.15;;;3.60;99.90;;;;;;4921259;29;20561;-76
2023/01/28 03:42:00;;;;;;;29.67;18.20;;;3.60;99.90;;;;;;4920940;29;20418;-74
2023/01/28 03:47:16;;;;;;;25.63;16.63;;;3.60;99.90;;;;;;4935607;29;20471;-72
2023/01/28 03:49:47;;;;;;;21.80;15.43;;;3.70;99.90;;;;;;4919908;29;20054;-70
2023/01/28 03:52:27;;;;;;;20.38;14.38;;;3.70;99.90;;;;;;4920278;28;20047;-72
2023/01/28 03:54:55;;;;;;;18.42;13.57;;;3.70;99.90;;;;;;4952277;29;20102;-73
2023/01/28 03:57:25;;;;;;;19.05;13.38;;;3.70;99.90;;;;;;4919884;28;20039;-72
2023/01/28 03:59:53;;;;;;;22.45;13.50;;;3.70;99.90;;;;;;4935252;29;20043;-71
2023/01/28 04:02:24;;;;;;;18.13;13.20;;;3.60;99.90;;;;;;4920042;28;20629;-72
2023/01/28 04:04:51;;;;;;;18.90;13.45;;;3.60;99.90;;;;;;4936532;29;20514;-73
2023/01/28 04:07:21;;;;;;;20.50;13.75;;;3.50;99.90;;;;;;4906437;29;20174;-72
2023/01/28 04:09:49;;;;;;;19.25;13.02;;;3.50;99.90;;;;;;4920977;29;20062;-74
2023/01/28 04:12:26;;;;;;;21.17;13.07;;;3.50;99.90;;;;;;4902700;23;20079;-72
2023/01/28 04:15:13;;;;;;;19.30;12.05;;;3.40;99.90;;;;;;4895674;29;20381;-72
2023/01/28 04:17:46;;;;;;;18.33;11.73;;;3.50;99.90;;;;;;4864569;29;20127;-72
2023/01/28 04:20:16;;;;;;;16.73;11.98;;;3.50;99.90;;;;;;4879327;29;20481;-70
2023/01/28 04:22:43;;;;;;;;;;;3.50;99.90;;;;;;4876142;29;20037;-73
2023/01/28 04:25:11;;;;;;;16.63;11.10;;;3.60;99.90;;;;;;4880186;29;19924;-73
2023/01/28 04:27:39;;;;;;;14.18;10.70;;;3.70;99.90;;;;;;4864435;29;20454;-73
2023/01/28 04:30:09;;;;;;;14.63;10.68;;;3.70;99.90;;;;;;4877526;29;20046;-74
2023/01/28 04:32:37;;;;;;;15.95;10.73;;;3.60;99.90;;;;;;4864715;29;20496;-74
2023/01/28 04:35:07;;;;;;;15.32;10.52;;;3.60;99.90;;;;;;4879207;29;20045;-73
2023/01/28 04:37:34;;;;;;;13.65;10.38;;;3.70;99.90;;;;;;4880023;29;20053;-74
2023/01/28 04:40:06;;;;;;;14.90;10.70;;;3.60;99.90;;;;;;4880010;29;20116;-70
2023/01/28 04:42:38;;;;;;;13.93;11.13;;;3.60;99.90;;;;;;4878426;29;20409;-73
2023/01/28 04:45:10;;;;;;;15.15;10.55;;;3.60;99.90;;;;;;4879747;29;20090;-73
2023/01/28 04:47:41;;;;;;;15.07;10.95;;;3.70;99.90;;;;;;4879277;29;20561;-73
2023/01/28 04:50:11;;;;;;;14.10;10.43;;;3.70;99.90;;;;;;4882497;29;20077;-72
2023/01/28 04:52:41;;;;;;;14.70;10.32;;;3.60;99.90;;;;;;4870114;29;20049;-71
2023/01/28 04:55:12;;;;;;;15.45;11.15;;;3.40;99.90;;;;;;4864606;29;20408;-72
2023/01/28 04:57:40;;;;;;;13.13;10.35;;;3.50;99.90;;;;;;4860959;29;20053;-73
2023/01/28 05:00:10;;;;;;;16.05;11.10;;;3.60;99.90;;;;;;4894922;29;20045;-72
2023/01/28 05:02:38;;;;;;;15.02;11.07;;;3.60;99.90;;;;;;4894733;29;20076;-73
2023/01/28 05:05:07;;;;;;;15.07;10.57;;;3.60;99.90;;;;;;4864265;29;20057;-70
2023/01/28 05:07:37;;;;;;;14.73;10.65;;;3.60;99.90;;;;;;4879856;29;20045;-70
2023/01/28 05:10:05;;;;;;;14.15;10.90;;;3.60;99.90;;;;;;4894833;29;20109;-70
2023/01/28 05:12:35;;;;;;;13.10;9.82;;;3.50;99.90;;;;;;4871130;29;20537;-73
2023/01/28 05:15:03;;;;;;;14.70;10.55;;;3.60;99.90;;;;;;4878817;29;20486;-73
2023/01/28 05:17:32;;;;;;;14.67;11.23;;;3.60;99.90;;;;;;4873092;29;20061;-73
2023/01/28 05:20:04;;;;;;;14.52;10.60;;;3.60;99.90;;;;;;4890734;29;20065;-70
2023/01/28 05:22:31;;;;;;;13.75;9.68;;;3.70;99.90;;;;;;4878543;29;20068;-71
2023/01/28 05:25:03;;;;;;;16.52;11.13;;;3.60;99.90;;;;;;4893677;29;20060;-71
2023/01/28 05:27:32;;;;;;;16.92;11.05;;;3.60;99.90;;;;;;4878720;29;20398;-71
2023/01/28 05:30:02;;;;;;;18.13;11.80;;;3.60;99.90;;;;;;4878796;29;20041;-71
2023/01/28 05:32:35;;;;;;;14.83;10.80;;;3.60;99.90;;;;;;4878656;29;20108;-72
2023/01/28 05:35:06;;;;;;;15.85;10.90;;;3.70;99.90;;;;;;4877956;29;20681;-72
2023/01/28 05:37:49;;;;;;;;;;;3.60;99.90;;;;;;4879309;29;20037;-72
2023/01/28 05:40:17;;;;;;;19.15;10.93;;;3.50;99.90;;;;;;4894270;29;19928;-71
2023/01/28 05:42:46;;;;;;;16.52;11.48;;;3.50;99.90;;;;;;4878568;29;20549;-73
2023/01/28 05:45:13;;;;;;;17.20;10.65;;;3.60;99.90;;;;;;4894674;29;20105;-72
2023/01/28 05:47:44;;;;;;;23.05;11.65;;;3.70;99.90;;;;;;4878150;29;20841;-74
2023/01/28 05:50:13;;;;;;;16.70;11.13;;;3.80;99.90;;;;;;4894300;29;20144;-72
2023/01/28 05:52:43;;;;;;;17.58;11.32;;;3.70;99.90;;;;;;4878389;29;20045;-72
2023/01/28 05:55:11;;;;;;;24.30;10.93;;;3.70;99.90;;;;;;4893673;29;20063;-72
2023/01/28 05:57:38;;;;;;;15.70;10.98;;;3.70;99.90;;;;;;4878198;29;20072;-73
2023/01/28 06:00:12;;;;;;;18.38;11.45;;;3.70;99.90;;;;;;4863768;29;20057;-73
2023/01/28 06:02:42;;;;;;;16.83;11.30;;;3.70;99.90;;;;;;4869833;29;20111;-73
2023/01/28 06:05:09;;;;;;;16.15;11.07;;;3.70;99.90;;;;;;4893530;29;20041;-72
2023/01/28 06:07:37;;;;;;;17.92;12.25;;;3.70;99.90;;;;;;4878111;29;20056;-72
2023/01/28 06:10:04;;;;;;;18.63;10.77;;;3.70;99.90;;;;;;4879255;29;20218;-72
2023/01/28 06:12:32;;;;;;;16.38;10.52;;;3.70;99.90;;;;;;4867124;29;20497;-73
2023/01/28 06:14:59;;;;;;;15.02;10.88;;;3.60;99.90;;;;;;4859599;29;20080;-74
2023/01/28 06:17:28;;;;;;;14.38;10.45;;;3.60;99.90;;;;;;4891291;23;20103;-70
2023/01/28 06:19:56;;;;;;;15.13;11.23;;;3.70;99.90;;;;;;4885197;29;20052;-72
2023/01/28 06:22:23;;;;;;;18.23;11.75;;;3.60;99.90;;;;;;4865640;29;20036;-72
2023/01/28 06:24:55;;;;;;;16.90;10.65;;;3.60;99.90;;;;;;4865628;29;20309;-75
2023/01/28 06:27:30;;;;;;;19.63;12.40;;;3.70;99.90;;;;;;4866252;29;20064;-74
2023/01/28 06:30:02;;;;;;;16.95;12.27;;;3.70;99.90;;;;;;4896875;29;20052;-74
2023/01/28 06:32:32;;;;;;;18.30;12.18;;;3.70;99.90;;;;;;4866320;29;20048;-73
2023/01/28 06:35:04;;;;;;;17.48;10.90;;;3.70;99.90;;;;;;4861439;29;20410;-73
2023/01/28 06:37:31;;;;;;;14.98;11.32;;;3.80;99.90;;;;;;4873559;29;20105;-72
2023/01/28 06:39:58;;;;;;;16.98;11.05;;;3.70;99.90;;;;;;4870584;29;20391;-74
2023/01/28 06:42:28;;;;;;;14.38;9.93;;;3.80;99.90;;;;;;4916767;29;20057;-73
2023/01/28 06:44:55;;;;;;;16.48;10.45;;;3.80;99.90;;;;;;4877500;29;20544;-74
2023/01/28 06:47:27;;;;;;;16.73;10.50;;;3.80;99.90;;;;;;4865617;29;20096;-73
2023/01/28 06:49:59;;;;;;;14.15;9.93;;;3.70;99.90;;;;;;4890371;29;20115;-72
2023/01/28 06:52:36;;;;;;;14.82;9.90;;;3.70;99.90;;;;;;4880310;29;20044;-74
2023/01/28 06:55:09;;;;;;;13.82;10.57;;;3.80;99.90;;;;;;4887408;29;20059;-75
2023/01/28 06:57:37;;;;;;;;;;;3.90;99.90;;;;;;4879726;29;20048;-73
2023/01/28 07:00:09;;;;;;;;;;;3.90;99.90;;;;;;4880534;29;20011;-73
2023/01/28 07:02:39;;;;;;;13.00;9.67;;;3.90;99.90;;;;;;4889494;29;19930;-71
2023/01/28 07:05:10;;;;;;;14.65;10.20;;;3.90;99.90;;;;;;4865537;29;20397;-74
2023/01/28 07:07:39;;;;;;;14.18;10.48;;;4.00;99.90;;;;;;4895195;29;20135;-72
2023/01/28 07:10:09;;;;;;;16.63;10.98;;;4.00;99.90;;;;;;4865010;29;20056;-73
2023/01/28 07:12:37;;;;;;;15.32;11.32;;;4.10;99.90;;;;;;4889516;29;20523;-73
2023/01/28 07:15:09;;;;;;;17.23;11.70;;;4.20;99.90;;;;;;4889352;29;20055;-72
2023/01/28 07:17:44;;;;;;;15.30;11.30;;;4.10;99.90;;;;;;4881093;29;20048;-72
2023/01/28 07:20:14;;;;;;;18.00;11.85;;;4.10;99.90;;;;;;4864010;29;20059;-72
2023/01/28 07:22:44;;;;;;;17.48;12.82;;;4.10;99.90;;;;;;4886795;29;20048;-72
2023/01/28 07:25:14;;;;;;;16.33;11.85;;;4.10;99.90;;;;;;4882378;29;20115;-71
2023/01/28 07:27:51;;;;;;;16.97;11.93;;;4.10;99.90;;;;;;4901695;29;20397;-72
2023/01/28 07:30:27;;;;;;;16.35;11.85;;;4.20;99.90;;;;;;4889144;29;20052;-72
2023/01/28 07:33:00;;;;;;;17.63;12.15;;;4.20;99.90;;;;;;4880101;29;20041;-72
2023/01/28 07:35:31;;;;;;;17.05;12.70;;;4.10;99.90;;;;;;4878840;29;20126;-73
2023/01/28 07:38:04;;;;;;;18.92;12.75;;;4.10;99.90;;;;;;4894263;29;20045;-72
2023/01/28 07:40:35;;;;;;;16.25;11.65;;;4.20;99.90;;;;;;4861802;29;20057;-72
2023/01/28 07:43:06;;;;;;;16.58;12.13;;;4.10;99.90;;;;;;4879026;29;20461;-71
2023/01/28 07:45:33;;;;;;;19.50;12.15;;;4.10;99.90;;;;;;4864418;29;20404;-73
2023/01/28 07:48:05;;;;;;;19.00;12.88;;;4.10;99.90;;;;;;4886242;29;20084;-71
2023/01/28 07:50:35;;;;;;;16.05;12.25;;;4.00;99.90;;;;;;4853830;29;20052;-73
2023/01/28 07:53:09;;;;;;;18.05;13.00;;;4.10;99.90;;;;;;4879573;29;20582;-71
2023/01/28 07:55:37;;;;;;;16.02;12.27;;;4.10;99.90;;;;;;4906320;29;20179;-73
2023/01/28 07:58:06;;;;;;;18.13;12.85;;;4.00;99.90;;;;;;4879376;29;20047;-71
2023/01/28 08:00:35;;;;;;;19.52;12.77;;;4.10;99.90;;;;;;4880771;29;20057;-75
2023/01/28 08:03:16;;;;;;;24.35;13.95;;;4.10;99.90;;;;;;4878566;29;20096;-73
2023/01/28 08:06:07;;;;;;;27.75;14.15;;;4.30;99.90;;;;;;4861360;29;20053;-74
2023/01/28 08:08:39;;;;;;;18.85;13.05;;;4.30;99.90;;;;;;4887482;29;20120;-75
2023/01/28 08:11:10;;;;;;;19.73;12.93;;;4.30;99.90;;;;;;4893563;29;20087;-74
2023/01/28 08:13:41;;;;;;;18.05;12.60;;;4.30;99.90;;;;;;4893237;29;20099;-74
2023/01/28 08:16:09;;;;;;;18.73;12.73;;;4.20;99.90;;;;;;4864260;29;20084;-73
2023/01/28 08:18:38;;;;;;;20.27;13.93;;;4.30;99.90;;;;;;4940467;23;20043;-72
2023/01/28 08:21:07;;;;;;;17.55;12.75;;;4.40;99.90;;;;;;4931358;29;20096;-75
2023/01/28 08:23:34;;;;;;;20.38;12.80;;;4.40;99.90;;;;;;4926337;29;20099;-72
2023/01/28 08:26:04;;;;;;;21.05;13.90;;;4.50;99.90;;;;;;4916689;29;20484;-73
2023/01/28 08:28:34;;;;;;;17.55;11.88;;;4.50;99.90;;;;;;4917374;29;20040;-71
2023/01/28 08:31:02;;;;;;;21.33;12.75;;;4.40;99.90;;;;;;4917357;29;20444;-74
2023/01/28 08:33:32;;;;;;;17.55;12.80;;;4.60;99.90;;;;;;4932190;29;20048;-72
2023/01/28 08:36:07;;;;;;;22.55;12.10;;;4.70;99.90;;;;;;4924919;29;20127;-74
2023/01/28 08:38:38;;;;;;;17.83;11.70;;;4.70;99.90;;;;;;4934499;29;20444;-74
2023/01/28 08:41:05;;;;;;;17.70;12.30;;;4.80;99.90;;;;;;4916588;29;20042;-74
2023/01/28 08:43:35;;;;;;;38.58;23.63;;;4.80;99.90;;;;;;4930176;29;20048;-70
2023/01/28 08:46:10;;;;;;;40.15;22.20;;;5.00;99.90;;;;;;4946334;29;20052;-73
2023/01/28 08:48:42;;;;;;;88.63;47.03;;;5.10;99.90;;;;;;4929091;29;20047;-74
2023/01/28 08:51:13;;;;;;;56.53;33.08;;;5.20;99.90;;;;;;4934848;29;20060;-71
2023/01/28 08:53:46;;;;;;;57.13;34.50;;;5.20;99.90;;;;;;4918708;29;20369;-72
2023/01/28 08:56:18;;;;;;;43.22;27.80;;;5.30;99.90;;;;;;4919237;29;20048;-74
2023/01/28 08:58:56;;;;;;;81.20;45.90;;;5.50;99.90;;;;;;4919184;29;20052;-71
2023/01/28 09:01:26;;;;;;;77.43;41.95;;;5.50;99.90;;;;;;4913790;29;20452;-75
2023/01/28 09:03:55;;;;;;;91.57;50.15;;;5.50;99.90;;;;;;4915261;29;20046;-71
2023/01/28 09:06:27;;;;;;;35.72;22.80;;;5.50;99.90;;;;;;4912450;29;20131;-72
2023/01/28 09:09:12;;;;;;;20.80;13.65;;;5.50;99.90;;;;;;4928058;29;20047;-72
2023/01/28 09:11:48;;;;;;;15.25;11.80;;;5.30;99.90;;;;;;4908974;29;20067;-75
2023/01/28 09:14:31;;;;;;;16.02;10.98;;;5.40;99.90;;;;;;4905894;29;20047;-71
2023/01/28 09:17:03;;;;;;;18.88;11.98;;;5.40;99.90;;;;;;4930336;29;20063;-70
2023/01/28 09:19:40;;;;;;;16.85;11.10;;;5.50;99.90;;;;;;4930519;29;20130;-71
2023/01/28 09:22:09;;;;;;;18.17;12.13;;;5.40;99.90;;;;;;4914576;29;20047;-70
2023/01/28 09:24:40;;;;;;;18.10;12.43;;;5.40;99.90;;;;;;4930735;29;20569;-71
2023/01/28 09:27:10;;;;;;;17.52;11.15;;;5.40;99.90;;;;;;4915160;29;20358;-70
2023/01/28 09:29:40;;;;;;;18.67;10.60;;;5.40;99.90;;;;;;4915432;29;20047;-70
2023/01/28 09:32:11;;;;;;;17.00;11.10;;;5.30;99.90;;;;;;4916731;29;20044;-70
2023/01/28 09:34:43;;;;;;;16.13;11.23;;;5.30;99.90;;;;;;4932316;29;20051;-70
2023/01/28 09:37:11;;;;;;;15.90;11.20;;;5.30;99.90;;;;;;4927988;29;20040;-70
2023/01/28 09:39:41;;;;;;;15.43;10.85;;;5.30;99.90;;;;;;4930976;29;20054;-71
2023/01/28 09:42:30;;;;;;;14.88;11.48;;;5.30;99.90;;;;;;4913661;29;20043;-68
2023/01/28 09:45:20;;;;;;;14.35;10.30;;;5.40;99.90;;;;;;4947567;23;20151;-71
2023/01/28 09:47:58;;;;;;;14.15;10.30;;;5.40;99.90;;;;;;4934483;29;20449;-70
2023/01/28 09:50:33;;;;;;;16.15;10.88;;;5.30;99.90;;;;;;4919647;29;20055;-70
2023/01/28 09:53:08;;;;;;;16.40;10.85;;;5.30;99.90;;;;;;4913028;29;20421;-70
2023/01/28 09:55:43;;;;;;;14.57;9.75;;;5.30;99.90;;;;;;4935869;29;20123;-72
2023/01/28 09:58:14;;;;;;;14.90;10.68;;;5.30;99.90;;;;;;4936888;29;20393;-71
2023/01/28 10:00:47;;;;;;;14.65;10.88;;;5.30;99.90;;;;;;4917451;29;20178;-73
2023/01/28 10:03:26;;;;;;;16.00;11.02;;;5.30;99.90;;;;;;4923686;29;20404;-73
2023/01/28 10:06:18;;;;;;;16.08;10.70;;;5.30;99.90;;;;;;4925601;29;20143;-70
2023/01/28 10:09:13;;;;;;;14.57;10.73;;;5.40;99.90;;;;;;4922629;29;20120;-69
2023/01/28 10:11:52;;;;;;;15.07;10.15;;;5.40;99.90;;;;;;4938272;29;20047;-68
2023/01/28 10:14:39;;;;;;;63.65;35.58;;;5.40;99.90;;;;;;4923314;29;20052;-68
2023/01/28 10:17:27;;;;;;;37.25;23.38;;;5.60;99.90;;;;;;4925492;29;20064;-71
2023/01/28 10:20:06;;;;;;;16.83;12.68;;;5.60;99.90;;;;;;4924049;29;20396;-67
2023/01/28 10:22:41;;;;;;;15.97;11.00;;;5.40;99.90;;;;;;4924322;29;20048;-67
2023/01/28 10:25:21;;;;;;;15.30;10.95;;;5.50;99.90;;;;;;4920954;29;20837;-68
2023/01/28 10:27:50;;;;;;;14.15;10.48;;;5.50;99.90;;;;;;4939176;29;20106;-69
2023/01/28 10:30:34;;;;;;;19.23;11.15;;;5.60;99.90;;;;;;4915649;29;20055;-71
2023/01/28 10:33:09;;;;;;;15.48;11.18;;;5.60;99.90;;;;;;4914735;29;20044;-70
2023/01/28 10:35:41;;;;;;;54.45;30.00;;;5.60;99.90;;;;;;4915445;29;20040;-69
2023/01/28 10:38:24;;;;;;;91.60;50.90;;;5.80;99.90;;;;;;4913997;29;20496;-69
2023/01/28 10:40:54;;;;;;;76.43;41.05;;;5.90;99.90;;;;;;4930077;29;20464;-71
2023/01/28 10:43:24;;;;;;;23.80;17.35;;;6.00;99.90;;;;;;4921263;29;20105;-71
2023/01/28 10:46:07;;;;;;;21.27;14.40;;;5.90;99.90;;;;;;4934237;29;20518;-72
2023/01/28 10:48:41;;;;;;;18.42;12.07;;;5.90;99.90;;;;;;4935083;29;20071;-73
2023/01/28 10:51:09;;;;;;;15.93;11.82;;;5.90;99.90;;;;;;4916516;29;20047;-70
2023/01/28 10:53:41;;;;;;;18.90;13.00;;;5.80;99.90;;;;;;4917999;29;20055;-74
2023/01/28 10:56:21;;;;;;;21.63;13.80;;;5.90;99.90;;;;;;4911012;29;20394;-76
2023/01/28 10:59:02;;;;;;;16.10;11.77;;;6.10;99.90;;;;;;4918284;29;20138;-72
2023/01/28 11:01:46;;;;;;;16.45;12.00;;;6.10;99.90;;;;;;4916163;29;20086;-70
2023/01/28 11:04:29;;;;;;;16.73;10.90;;;6.10;99.90;;;;;;4913624;29;20181;-70
2023/01/28 11:07:00;;;;;;;16.48;11.30;;;6.30;99.90;;;;;;4917055;29;20047;-71
2023/01/28 11:09:36;;;;;;;17.27;11.27;;;6.50;99.90;;;;;;4917999;29;20126;-72
2023/01/28 11:12:28;;;;;;;19.52;11.70;;;6.60;99.90;;;;;;4916778;29;20078;-73
2023/01/28 11:15:08;;;;;;;21.23;13.38;;;6.80;99.90;;;;;;4932847;29;20047;-71
2023/01/28 11:17:39;;;;;;;22.73;14.77;;;7.00;99.90;;;;;;4900358;29;20142;-71
2023/01/28 11:20:23;;;;;;;35.10;21.88;;;6.90;99.90;;;;;;4915622;29;20427;-75
2023/01/28 11:22:56;;;;;;;21.30;14.32;;;7.20;99.90;;;;;;4932865;29;20444;-74
2023/01/28 11:25:32;;;;;;;18.85;14.02;;;7.30;99.90;;;;;;4926381;29;20396;-73
2023/01/28 11:28:04;;;;;;;16.65;11.85;;;7.40;99.90;;;;;;4898760;29;20036;-71
2023/01/28 11:30:39;;;;;;;124.30;62.55;;;7.40;99.90;;;;;;4927340;23;20093;-69
2023/01/28 11:33:15;;;;;;;259.05;132.88;;;7.70;99.90;;;;;;4876363;29;21302;-72
2023/01/28 11:35:55;;;;;;;79.90;45.30;;;8.00;99.90;;;;;;4885963;29;20044;-72
2023/01/28 11:38:28;;;;;;;36.55;24.85;;;8.10;99.90;;;;;;4906869;29;20052;-72
2023/01/28 11:41:00;;;;;;;21.67;15.35;;;8.10;99.90;;;;;;4876650;29;20048;-73
2023/01/28 11:43:31;;;;;;;19.05;13.77;;;8.10;99.90;;;;;;4889850;29;20048;-72
2023/01/28 11:46:17;;;;;;;19.02;12.43;;;8.00;99.80;;;;;;4876072;29;20453;-72
2023/01/28 11:49:06;;;;;;;17.33;12.00;;;7.90;98.60;;;;;;4911795;29;20051;-72
2023/01/28 11:52:18;;;;;;;15.23;11.40;;;7.70;99.00;;;;;;4877000;29;20041;-70
2023/01/28 11:55:16;;;;;;;16.70;11.88;;;7.70;99.40;;;;;;4870768;29;20057;-72
2023/01/28 11:57:59;;;;;;;17.30;12.20;;;7.80;99.70;;;;;;4876710;29;20080;-72
2023/01/28 12:00:44;;;;;;;21.52;11.32;;;7.80;99.20;;;;;;4900119;23;20046;-71
2023/01/28 12:03:31;;;;;;;15.73;11.45;;;7.90;98.90;;;;;;4896879;29;20119;-72
2023/01/28 12:06:16;;;;;;;22.05;12.80;;;8.00;98.50;;;;;;4912935;23;20064;-72
2023/01/28 12:09:00;;;;;;;19.63;12.23;;;7.90;97.70;;;;;;4906562;29;20041;-71
2023/01/28 12:14:59;;;;;;;18.30;12.75;;;7.80;98.40;;;;;;4928951;29;20032;-73
2023/01/28 12:17:50;;;;;;;18.70;12.85;;;8.00;99.00;;;;;;4913641;29;20524;-72
2023/01/28 12:20:46;;;;;;;18.52;13.35;;;8.00;98.90;;;;;;4914552;29;20458;-72
2023/01/28 12:23:27;;;;;;;20.60;13.10;;;7.80;98.50;;;;;;4929328;29;20425;-73
2023/01/28 12:26:10;;;;;;;21.00;13.93;;;7.70;99.10;;;;;;4901375;29;20075;-72
2023/01/28 12:29:16;;;;;;;20.15;14.23;;;7.60;99.90;;;;;;4930713;29;20095;-72
2023/01/28 12:32:07;;;;;;;20.33;13.35;;;7.40;99.90;;;;;;4887990;29;20048;-73
2023/01/28 12:34:50;;;;;;;20.73;13.82;;;7.30;99.90;;;;;;4917815;29;20055;-73
2023/01/28 12:37:40;;;;;;;19.45;13.77;;;7.20;99.90;;;;;;4918249;29;20076;-74
2023/01/28 12:40:32;;;;;;;21.08;13.57;;;7.10;99.90;;;;;;4883208;29;20040;-72
2023/01/28 12:43:09;;;;;;;19.13;12.88;;;7.20;99.90;;;;;;4912837;29;20036;-74
2023/01/28 12:45:39;;;;;;;20.67;13.73;;;7.00;99.90;;;;;;4900193;29;20377;-72
2023/01/28 12:48:10;;;;;;;;;;;7.00;99.90;;;;;;4900026;29;20400;-76
2023/01/28 12:50:45;;;;;;;19.77;12.95;;;7.40;99.90;;;;;;4928719;29;19946;-73
2023/01/28 12:53:41;;;;;;;20.63;12.90;;;7.40;99.90;;;;;;4916275;29;20529;-73
2023/01/28 12:56:19;;;;;;;18.52;12.68;;;7.80;99.90;;;;;;4897162;29;20551;-71
2023/01/28 12:58:52;;;;;;;17.45;12.25;;;8.10;99.40;;;;;;4916527;29;20055;-71
2023/01/28 13:01:28;;;;;;;13.55;10.45;;;7.70;99.20;;;;;;4915737;29;20052;-71
2023/01/28 13:04:24;;;;;;;15.20;11.27;;;7.70;99.20;;;;;;4910348;29;20115;-71
2023/01/28 13:07:01;;;;;;;16.13;10.65;;;7.60;99.70;;;;;;4908824;29;20457;-72
2023/01/28 13:09:32;;;;;;;19.75;11.40;;;7.50;99.90;;;;;;4932168;29;20043;-70
2023/01/28 13:12:00;;;;;;;14.43;10.00;;;7.10;99.90;;;;;;4900246;29;20048;-74
2023/01/28 13:14:33;;;;;;;13.88;10.90;;;6.80;99.90;;;;;;4917984;29;20040;-72
2023/01/28 13:17:20;;;;;;;15.57;10.38;;;6.90;99.90;;;;;;4901835;29;20048;-71
2023/01/28 13:20:00;;;;;;;13.52;9.90;;;6.70;99.90;;;;;;4916922;29;20095;-74
2023/01/28 13:22:37;;;;;;;15.25;11.20;;;6.70;99.90;;;;;;4914248;29;20048;-75
2023/01/28 13:25:26;;;;;;;19.67;10.57;;;6.70;99.90;;;;;;4916764;29;20044;-74
2023/01/28 13:27:55;;;;;;;;;;;6.60;99.90;;;;;;4909859;29;20099;-69
2023/01/28 13:30:29;;;;;;;13.75;10.18;;;6.60;99.90;;;;;;4916042;29;20014;-70
2023/01/28 13:33:12;;;;;;;20.58;13.88;;;6.50;99.90;;;;;;4915439;29;20095;-73
2023/01/28 13:35:52;;;;;;;47.05;27.58;;;6.70;99.90;;;;;;4926080;29;20076;-73
2023/01/28 13:38:46;;;;;;;110.25;58.83;;;6.90;99.90;;;;;;4923369;23;20068;-72
2023/01/28 13:41:35;;;;;;;64.47;41.58;;;6.90;99.90;;;;;;4897094;29;20123;-73
2023/01/28 13:44:03;;;;;;;59.97;33.95;;;7.00;99.90;;;;;;4897684;29;20040;-74
2023/01/28 13:46:32;;;;;;;54.65;31.65;;;7.00;99.90;;;;;;4923506;29;20115;-71
2023/01/28 13:49:01;;;;;;;19.75;14.70;;;7.10;99.90;;;;;;4895621;29;20044;-73
2023/01/28 13:51:34;;;;;;;15.00;10.75;;;6.90;99.90;;;;;;4892474;29;20071;-71